Time;durP1;ratioP1;P1;durP2;ratioP2;P2;SDS_P1;SDS_P2;PMS_P1;PMS_P2;Temp;Humidity;BMP_temperature;BMP_pressure;BME280_temperature;BME280_humidity;BME280_pressure;Samples;Min_cycle;Max_cycle;Signal;HPM_P1;HPM_P2
2022/01/12 00:02:03;;;;;;;67.40;26.67;;;3.60;99.90;;;;;;5009908;28;20034;-65
2022/01/12 00:04:29;;;;;;;69.07;27.73;;;3.60;99.90;;;;;;5009843;28;20057;-65
2022/01/12 00:06:55;;;;;;;68.63;27.65;;;3.60;99.90;;;;;;5009969;28;20109;-65
2022/01/12 00:09:20;;;;;;;65.63;27.27;;;3.60;99.90;;;;;;5009767;28;20049;-65
2022/01/12 00:11:46;;;;;;;65.75;28.95;;;3.60;99.90;;;;;;5009743;28;20052;-65
2022/01/12 00:14:11;;;;;;;65.30;27.50;;;3.60;99.90;;;;;;5009695;28;20042;-65
2022/01/12 00:16:39;;;;;;;62.38;27.92;;;3.70;99.90;;;;;;5009885;28;20038;-64
2022/01/12 00:19:04;;;;;;;66.68;28.15;;;3.70;99.90;;;;;;5009796;28;20042;-65
2022/01/12 00:21:30;;;;;;;61.95;28.05;;;3.70;99.90;;;;;;5009513;28;20490;-65
2022/01/12 00:23:56;;;;;;;66.78;27.00;;;3.70;99.90;;;;;;5009195;28;20033;-65
2022/01/12 00:34:24;;;;;;;74.18;29.25;;;3.80;99.90;;;;;;5009169;28;20044;-64
2022/01/12 00:36:50;;;;;;;73.85;28.35;;;3.80;99.90;;;;;;5009598;28;20041;-64
2022/01/12 00:39:15;;;;;;;71.05;29.30;;;3.70;99.90;;;;;;5009552;28;20073;-64
2022/01/12 00:41:41;;;;;;;68.97;27.27;;;3.70;99.90;;;;;;5007972;28;20081;-63
2022/01/12 00:44:10;;;;;;;68.85;26.92;;;3.70;99.90;;;;;;5009236;28;20120;-63
2022/01/12 00:46:39;;;;;;;70.60;28.23;;;3.70;99.90;;;;;;5008299;28;20052;-63
2022/01/12 00:49:05;;;;;;;76.22;28.65;;;3.80;99.90;;;;;;5008274;28;20445;-63
2022/01/12 00:51:33;;;;;;;74.00;29.10;;;3.80;99.90;;;;;;5007871;28;20136;-63
2022/01/12 00:54:00;;;;;;;89.10;31.63;;;3.80;99.90;;;;;;5010406;28;20434;-63
2022/01/12 00:56:26;;;;;;;80.28;29.80;;;3.80;99.90;;;;;;5013470;28;20034;-63
2022/01/12 00:58:52;;;;;;;84.45;29.83;;;3.70;99.90;;;;;;5013513;28;20045;-63
2022/01/12 01:01:20;;;;;;;82.30;29.45;;;3.70;99.90;;;;;;5012972;28;20040;-63
2022/01/12 01:03:50;;;;;;;78.07;29.05;;;3.70;99.90;;;;;;5012985;28;20449;-63
2022/01/12 01:06:16;;;;;;;78.07;29.27;;;3.70;99.90;;;;;;5013104;28;20140;-63
2022/01/12 01:08:43;;;;;;;89.45;30.98;;;3.80;99.90;;;;;;5013381;28;20085;-65
2022/01/12 01:11:09;;;;;;;79.63;29.30;;;3.70;99.90;;;;;;5013074;28;20080;-65
2022/01/12 01:13:43;;;;;;;74.00;28.77;;;3.70;99.90;;;;;;5011416;28;20080;-65
2022/01/12 01:16:20;;;;;;;76.10;29.45;;;3.80;99.90;;;;;;5012873;28;20038;-65
2022/01/12 01:26:59;;;;;;;77.78;29.77;;;3.80;99.90;;;;;;5012943;28;20145;-63
2022/01/12 01:29:24;;;;;;;81.70;29.92;;;3.80;99.90;;;;;;5013076;28;20121;-63
2022/01/12 01:31:50;;;;;;;80.38;30.13;;;3.80;99.90;;;;;;5012689;28;20117;-63
2022/01/12 01:34:16;;;;;;;70.88;29.58;;;3.80;99.90;;;;;;5012321;28;20049;-63
2022/01/12 01:36:46;;;;;;;74.80;30.48;;;3.80;99.90;;;;;;5012463;28;20042;-63
2022/01/12 01:39:15;;;;;;;79.03;30.65;;;3.80;99.90;;;;;;5012796;28;20143;-63
2022/01/12 01:41:44;;;;;;;78.15;30.17;;;3.80;99.90;;;;;;5012558;28;20100;-63
2022/01/12 01:54:53;;;;;;;75.60;30.38;;;3.80;99.90;;;;;;5012194;28;20077;-63
2022/01/12 01:57:18;;;;;;;73.68;28.23;;;3.80;99.90;;;;;;5012265;28;20535;-63
2022/01/12 01:59:45;;;;;;;68.22;28.13;;;3.80;99.90;;;;;;5012206;28;20390;-63
2022/01/12 02:02:12;;;;;;;71.90;27.88;;;3.80;99.90;;;;;;5010862;28;20049;-63
2022/01/12 02:04:38;;;;;;;68.22;28.35;;;3.80;99.90;;;;;;5011505;28;20541;-63
2022/01/12 02:07:03;;;;;;;65.63;28.30;;;3.90;99.90;;;;;;5012046;28;20117;-63
2022/01/12 02:09:29;;;;;;;67.78;28.35;;;3.90;99.90;;;;;;5012033;28;20117;-63
2022/01/12 02:11:55;;;;;;;80.97;28.65;;;3.90;99.90;;;;;;5011874;28;20040;-63
2022/01/12 02:14:20;;;;;;;69.43;28.13;;;3.90;99.90;;;;;;5011395;28;20092;-63
2022/01/12 02:16:57;;;;;;;68.43;27.83;;;3.90;99.90;;;;;;5010360;28;20037;-63
2022/01/12 02:19:47;;;;;;;73.60;28.45;;;3.90;99.90;;;;;;5010488;28;20067;-63
2022/01/12 02:36:13;;;;;;;72.50;29.58;;;4.00;99.90;;;;;;5011616;28;20521;-63
2022/01/12 02:41:24;;;;;;;95.22;31.80;;;4.00;99.90;;;;;;5011176;28;20088;-63
2022/01/12 02:54:53;;;;;;;105.68;33.72;;;4.10;99.90;;;;;;4991383;28;20508;-62
2022/01/12 02:57:19;;;;;;;103.57;34.08;;;4.10;99.90;;;;;;5011236;28;20552;-63
2022/01/12 03:00:07;;;;;;;103.35;32.00;;;4.10;99.90;;;;;;5009785;28;20042;-63
2022/01/12 03:02:41;;;;;;;104.45;31.95;;;4.10;99.90;;;;;;5011024;28;20088;-64
2022/01/12 03:07:53;;;;;;;109.07;32.08;;;4.10;99.90;;;;;;5009787;28;20049;-63
2022/01/12 03:10:19;;;;;;;115.05;32.50;;;4.10;99.90;;;;;;5011291;28;20042;-63
2022/01/12 03:12:45;;;;;;;126.25;32.25;;;4.10;99.90;;;;;;5010524;28;20056;-64
2022/01/12 03:15:11;;;;;;;100.63;31.25;;;4.10;99.90;;;;;;5009513;28;20041;-64
2022/01/12 03:17:37;;;;;;;107.18;31.23;;;4.10;99.90;;;;;;5010060;28;20060;-63
2022/01/12 03:20:04;;;;;;;172.63;32.97;;;4.10;99.90;;;;;;5010739;28;20116;-64
2022/01/12 03:22:29;;;;;;;195.45;34.05;;;4.10;99.90;;;;;;5010398;28;20038;-64
2022/01/12 03:24:55;;;;;;;169.80;32.00;;;4.10;99.90;;;;;;5010392;28;20049;-63
2022/01/12 03:27:22;;;;;;;164.98;34.65;;;4.10;99.90;;;;;;5009398;28;20057;-64
2022/01/12 03:29:51;;;;;;;161.95;34.72;;;4.10;99.90;;;;;;5009160;28;20088;-63
2022/01/12 03:32:20;;;;;;;134.27;32.97;;;4.10;99.90;;;;;;5009155;28;20045;-63
2022/01/12 03:34:54;;;;;;;150.48;32.55;;;4.10;99.90;;;;;;5010116;28;20514;-63
2022/01/12 03:37:40;;;;;;;121.32;32.65;;;4.10;99.90;;;;;;5010317;28;20048;-63
2022/01/12 03:40:06;;;;;;;136.10;32.00;;;4.10;99.90;;;;;;5008991;28;20088;-64
2022/01/12 03:42:32;;;;;;;106.63;30.35;;;4.10;99.90;;;;;;5009097;28;20132;-64
2022/01/12 03:44:57;;;;;;;119.15;31.95;;;4.20;99.90;;;;;;5009019;28;20041;-64
2022/01/12 03:47:23;;;;;;;127.85;31.23;;;4.20;99.90;;;;;;5010222;28;20065;-63
2022/01/12 03:49:49;;;;;;;119.18;32.47;;;4.20;99.90;;;;;;5009949;28;20080;-64
2022/01/12 03:52:14;;;;;;;112.95;32.55;;;4.30;99.90;;;;;;5009040;28;20033;-64
2022/01/12 03:54:40;;;;;;;117.07;31.45;;;4.30;99.90;;;;;;5008551;28;20522;-64
2022/01/12 03:57:05;;;;;;;125.47;31.67;;;4.30;99.90;;;;;;5010163;28;20449;-64
2022/01/12 03:59:31;;;;;;;144.45;30.48;;;4.20;99.90;;;;;;5008667;28;20571;-64
2022/01/12 04:01:57;;;;;;;139.60;32.50;;;4.30;99.90;;;;;;5010075;28;20292;-64
2022/01/12 04:04:31;;;;;;;130.05;31.75;;;4.30;99.90;;;;;;5008437;28;20045;-64
2022/01/12 04:09:42;;;;;;;173.10;32.53;;;4.30;99.90;;;;;;5009768;28;20049;-64
2022/01/12 04:12:07;;;;;;;117.30;30.75;;;4.30;99.90;;;;;;5008312;28;20144;-64
2022/01/12 04:14:33;;;;;;;167.75;32.60;;;4.30;99.90;;;;;;5009521;28;20037;-64
2022/01/12 04:16:59;;;;;;;185.30;33.63;;;4.30;99.90;;;;;;5009604;28;20041;-64
2022/01/12 04:19:26;;;;;;;136.90;32.35;;;4.30;99.90;;;;;;5009521;28;20391;-64
2022/01/12 04:21:52;;;;;;;156.50;32.30;;;4.30;99.90;;;;;;5009884;28;20034;-63
2022/01/12 04:24:18;;;;;;;175.10;32.15;;;4.30;99.90;;;;;;5008804;28;20074;-63
2022/01/12 04:26:44;;;;;;;132.00;31.83;;;4.30;99.90;;;;;;5009379;28;20038;-63
2022/01/12 04:29:09;;;;;;;249.85;34.58;;;4.30;99.90;;;;;;4990625;28;20582;-64
2022/01/12 04:31:36;;;;;;;186.93;34.72;;;4.30;99.90;;;;;;5008577;28;20033;-64
2022/01/12 04:34:04;;;;;;;193.45;32.72;;;4.30;99.90;;;;;;5009301;28;20046;-63
2022/01/12 04:36:29;;;;;;;157.02;32.65;;;4.30;99.90;;;;;;5003378;28;20038;-64
2022/01/12 04:38:55;;;;;;;191.05;32.33;;;4.30;99.90;;;;;;4988545;28;20045;-64
2022/01/12 04:41:24;;;;;;;284.67;34.30;;;4.30;99.90;;;;;;4987424;28;20097;-64
2022/01/12 04:43:50;;;;;;;249.57;35.28;;;4.30;99.90;;;;;;4989493;28;20113;-64
2022/01/12 04:51:09;;;;;;;215.50;33.30;;;4.30;99.90;;;;;;4988054;28;20053;-63
2022/01/12 04:53:35;;;;;;;248.55;35.17;;;4.30;99.90;;;;;;4989520;28;20054;-64
2022/01/12 04:56:01;;;;;;;178.63;33.22;;;4.30;99.90;;;;;;4990153;28;20042;-64
2022/01/12 04:58:27;;;;;;;329.40;38.55;;;4.30;99.90;;;;;;4989947;28;20436;-64
2022/01/12 05:00:57;;;;;;;185.77;33.65;;;4.30;99.90;;;;;;4988261;28;20117;-64
2022/01/12 05:09:09;;;;;;;204.35;32.65;;;4.30;99.90;;;;;;4989506;28;20690;-64
2022/01/12 05:14:22;;;;;;;221.93;33.25;;;4.20;99.90;;;;;;4987940;28;20053;-63
2022/01/12 05:16:47;;;;;;;181.48;32.03;;;4.30;99.90;;;;;;4989713;28;20046;-64
2022/01/12 05:19:13;;;;;;;139.00;30.77;;;4.20;99.90;;;;;;4989583;28;20043;-64
2022/01/12 05:21:38;;;;;;;195.88;31.80;;;4.20;99.90;;;;;;4987865;28;20112;-64
2022/01/12 05:24:06;;;;;;;249.73;35.53;;;4.20;99.90;;;;;;4989237;28;20126;-64
2022/01/12 05:26:33;;;;;;;241.68;35.08;;;4.10;99.90;;;;;;4988663;28;20145;-64
2022/01/12 05:28:59;;;;;;;259.70;35.83;;;4.10;99.90;;;;;;4989724;28;20050;-64
2022/01/12 05:31:24;;;;;;;238.18;34.17;;;4.10;99.90;;;;;;4989270;28;20058;-64
2022/01/12 05:33:50;;;;;;;199.50;34.70;;;4.10;99.90;;;;;;4989209;28;20050;-64
2022/01/12 05:36:18;;;;;;;241.57;37.35;;;4.00;99.90;;;;;;4987949;28;20046;-64
2022/01/12 05:38:44;;;;;;;222.15;33.75;;;4.00;99.90;;;;;;4989891;28;20046;-64
2022/01/12 05:41:10;;;;;;;206.43;35.78;;;4.00;99.90;;;;;;4991226;28;20049;-64
2022/01/12 05:43:37;;;;;;;274.80;36.22;;;4.00;99.90;;;;;;4992870;28;20125;-64
2022/01/12 05:46:13;;;;;;;204.95;33.92;;;4.00;99.90;;;;;;4992978;28;20050;-64
2022/01/12 05:51:25;;;;;;;211.82;33.08;;;4.00;99.90;;;;;;4989707;28;20423;-64
2022/01/12 05:53:51;;;;;;;232.15;32.70;;;3.90;99.90;;;;;;4989405;28;20042;-64
2022/01/12 05:56:17;;;;;;;279.63;34.38;;;3.90;99.90;;;;;;4989537;28;20046;-64
2022/01/12 05:58:42;;;;;;;361.90;36.67;;;3.90;99.90;;;;;;4989855;28;20085;-64
2022/01/12 06:01:08;;;;;;;448.75;39.35;;;3.80;99.90;;;;;;4989185;28;20038;-64
2022/01/12 06:03:34;;;;;;;413.10;35.58;;;3.80;99.90;;;;;;4989117;28;20038;-64
2022/01/12 06:05:59;;;;;;;692.92;48.40;;;3.80;99.90;;;;;;4988268;28;20042;-64
2022/01/12 06:08:25;;;;;;;594.83;45.40;;;3.70;99.90;;;;;;4989582;28;20042;-64
2022/01/12 06:10:50;;;;;;;575.10;41.30;;;3.70;99.90;;;;;;4987824;28;20083;-64
2022/01/12 06:13:16;;;;;;;584.80;43.22;;;3.80;99.90;;;;;;4988823;28;20051;-63
2022/01/12 06:15:41;;;;;;;461.05;38.78;;;3.70;99.90;;;;;;4987977;28;20605;-67
2022/01/12 06:18:07;;;;;;;444.50;36.03;;;3.70;99.90;;;;;;4987843;28;20129;-64
2022/01/12 06:20:33;;;;;;;461.42;38.30;;;3.70;99.90;;;;;;4989326;28;20117;-64
2022/01/12 06:22:58;;;;;;;294.50;32.42;;;3.70;99.90;;;;;;4988841;28;20073;-64
2022/01/12 06:25:24;;;;;;;384.02;35.42;;;3.70;99.90;;;;;;4989348;28;20498;-64
2022/01/12 06:27:56;;;;;;;190.63;30.77;;;3.70;99.90;;;;;;4989338;28;20610;-65
2022/01/12 06:32:54;;;;;;;;;;;3.70;99.90;;;;;;4989311;28;20418;-64
2022/01/12 06:35:20;;;;;;;341.40;31.25;;;3.70;99.90;;;;;;4988692;28;19926;-64
2022/01/12 06:37:46;;;;;;;259.42;31.80;;;3.70;99.90;;;;;;4988828;28;20107;-64
2022/01/12 06:40:16;;;;;;;200.63;29.05;;;3.70;99.90;;;;;;4988801;28;20756;-64
2022/01/12 06:42:42;;;;;;;122.28;27.95;;;3.80;99.90;;;;;;4988462;28;20038;-64
2022/01/12 06:45:09;;;;;;;112.88;27.92;;;3.80;99.90;;;;;;4988652;28;20110;-64
2022/01/12 06:47:35;;;;;;;122.65;28.52;;;3.90;99.90;;;;;;4988709;28;20046;-64
2022/01/12 06:50:01;;;;;;;111.03;27.63;;;3.90;99.90;;;;;;4988774;28;20045;-65
2022/01/12 06:52:26;;;;;;;87.97;26.13;;;3.90;99.90;;;;;;4987360;28;20038;-64
2022/01/12 06:58:24;;;;;;;122.22;25.98;;;3.90;99.90;;;;;;4988696;28;20061;-64
2022/01/12 07:00:49;;;;;;;142.50;28.50;;;3.90;99.90;;;;;;4986609;28;20050;-64
2022/01/12 07:03:15;;;;;;;200.73;30.20;;;4.00;99.90;;;;;;4988307;28;20050;-64
2022/01/12 07:05:40;;;;;;;129.60;29.25;;;4.00;99.90;;;;;;4988390;28;20046;-64
2022/01/12 07:08:06;;;;;;;135.52;30.35;;;4.00;99.90;;;;;;4988834;28;20097;-64
2022/01/12 07:10:32;;;;;;;120.97;28.60;;;4.00;99.90;;;;;;4989356;28;20213;-64
2022/01/12 07:12:57;;;;;;;138.00;28.75;;;4.00;99.90;;;;;;4989816;28;20418;-63
2022/01/12 07:15:23;;;;;;;115.97;28.85;;;4.00;99.90;;;;;;4991222;28;20038;-63
2022/01/12 07:17:49;;;;;;;125.97;28.63;;;4.00;99.90;;;;;;4989285;28;20605;-63
2022/01/12 07:20:15;;;;;;;102.40;27.73;;;4.10;99.90;;;;;;4990077;28;20045;-63
2022/01/12 07:22:41;;;;;;;100.90;27.88;;;4.10;99.90;;;;;;4989771;28;20038;-63
2022/01/12 07:25:07;;;;;;;92.97;26.15;;;4.10;99.90;;;;;;4991168;28;20129;-63
2022/01/12 07:27:32;;;;;;;98.30;26.15;;;4.10;99.90;;;;;;4991340;28;20070;-63
2022/01/12 07:29:58;;;;;;;102.22;26.58;;;4.20;99.90;;;;;;4990788;28;20054;-64
2022/01/12 07:32:24;;;;;;;88.25;25.10;;;4.10;99.90;;;;;;4990810;28;20641;-64
2022/01/12 07:34:50;;;;;;;85.38;24.77;;;4.10;99.90;;;;;;4990809;28;20101;-63
2022/01/12 07:37:16;;;;;;;81.88;24.88;;;4.10;99.90;;;;;;4989644;28;20046;-63
2022/01/12 07:39:42;;;;;;;82.22;25.38;;;4.10;99.90;;;;;;4990912;28;20039;-64
2022/01/12 07:42:07;;;;;;;69.65;23.17;;;4.10;99.90;;;;;;4990781;28;20046;-63
2022/01/12 07:44:33;;;;;;;83.35;25.08;;;4.10;99.90;;;;;;4990487;28;20089;-63
2022/01/12 07:46:59;;;;;;;81.00;24.90;;;4.10;99.90;;;;;;4989329;28;20479;-63
2022/01/12 07:49:24;;;;;;;72.32;23.63;;;4.10;99.90;;;;;;4989390;28;20101;-63
2022/01/12 07:51:50;;;;;;;69.03;23.92;;;4.10;99.90;;;;;;4989283;28;20121;-63
2022/01/12 07:54:16;;;;;;;64.10;21.08;;;4.20;99.90;;;;;;4990348;28;20108;-63
2022/01/12 07:56:41;;;;;;;69.32;22.25;;;4.20;99.90;;;;;;4990665;28;20034;-63
2022/01/12 07:59:07;;;;;;;64.00;21.80;;;4.20;99.90;;;;;;4990354;28;20132;-63
2022/01/12 08:01:32;;;;;;;67.97;20.73;;;4.20;99.90;;;;;;4990426;28;20041;-63
2022/01/12 08:03:58;;;;;;;63.80;20.77;;;4.30;99.90;;;;;;4988386;28;20149;-63
2022/01/12 08:06:23;;;;;;;78.40;22.35;;;4.30;99.90;;;;;;4989886;28;20069;-63
2022/01/12 08:08:49;;;;;;;62.28;21.13;;;4.30;99.90;;;;;;4990499;28;20034;-64
2022/01/12 08:11:14;;;;;;;62.55;21.05;;;4.30;99.90;;;;;;4990270;28;20049;-63
2022/01/12 08:13:42;;;;;;;57.28;20.02;;;4.30;99.90;;;;;;4990197;28;20039;-63
2022/01/12 08:16:08;;;;;;;63.67;21.67;;;4.30;99.90;;;;;;4990337;28;20042;-63
2022/01/12 08:18:34;;;;;;;66.20;19.60;;;4.30;99.90;;;;;;4972641;28;20556;-64
2022/01/12 08:21:00;;;;;;;73.90;21.23;;;4.30;99.90;;;;;;4989783;28;20096;-63
2022/01/12 08:23:26;;;;;;;70.28;20.13;;;4.30;99.90;;;;;;4990325;28;20084;-63
2022/01/12 08:25:52;;;;;;;68.75;21.52;;;4.30;99.90;;;;;;4988753;28;20121;-63
2022/01/12 08:28:17;;;;;;;62.13;21.13;;;4.30;99.90;;;;;;4989966;28;20034;-63
2022/01/12 08:30:43;;;;;;;69.72;20.73;;;4.20;99.90;;;;;;4989798;28;20042;-63
2022/01/12 08:33:09;;;;;;;65.03;20.98;;;4.20;99.90;;;;;;4988572;28;20048;-63
2022/01/12 08:35:34;;;;;;;60.20;20.25;;;4.10;99.90;;;;;;4988372;28;20046;-63
2022/01/12 08:38:00;;;;;;;60.00;19.30;;;4.10;99.90;;;;;;4972378;28;20077;-63
2022/01/12 08:40:27;;;;;;;66.75;20.70;;;4.00;99.90;;;;;;4989946;28;20046;-63
2022/01/12 08:42:53;;;;;;;59.90;19.15;;;4.00;99.90;;;;;;4989909;28;20038;-64
2022/01/12 08:45:18;;;;;;;75.90;20.85;;;3.90;99.90;;;;;;4989999;28;20093;-64
2022/01/12 08:47:44;;;;;;;63.95;19.52;;;3.80;99.90;;;;;;4989803;28;20092;-63
2022/01/12 08:50:11;;;;;;;62.90;20.02;;;3.80;99.90;;;;;;4988376;28;20129;-64
2022/01/12 08:52:36;;;;;;;58.08;19.45;;;3.80;99.90;;;;;;4989838;28;20616;-63
2022/01/12 08:55:03;;;;;;;63.63;20.00;;;3.80;99.90;;;;;;4989966;28;20126;-64
2022/01/12 08:57:29;;;;;;;58.15;19.48;;;3.80;99.90;;;;;;4989650;28;20621;-64
2022/01/12 08:59:57;;;;;;;65.38;19.15;;;3.90;99.90;;;;;;4989501;28;20403;-64
2022/01/12 09:02:23;;;;;;;56.00;19.48;;;3.90;99.90;;;;;;4988373;28;20038;-63
2022/01/12 09:04:48;;;;;;;54.20;18.52;;;3.90;99.90;;;;;;4989603;28;20092;-63
2022/01/12 09:07:14;;;;;;;58.67;18.25;;;4.00;99.90;;;;;;4989888;28;20461;-63
2022/01/12 09:09:39;;;;;;;68.30;20.65;;;4.10;99.90;;;;;;4989686;28;20434;-64
2022/01/12 09:12:05;;;;;;;58.95;18.48;;;4.20;99.90;;;;;;4989838;28;20061;-63
2022/01/12 09:14:32;;;;;;;64.28;19.52;;;4.40;99.90;;;;;;4990243;28;20053;-63
2022/01/12 09:16:59;;;;;;;68.65;19.50;;;4.40;99.90;;;;;;4993313;28;20518;-63
2022/01/12 09:19:25;;;;;;;63.47;19.52;;;4.50;99.90;;;;;;4993324;28;20188;-63
2022/01/12 09:21:51;;;;;;;71.97;20.25;;;4.70;99.90;;;;;;4993419;28;20062;-63
2022/01/12 09:24:17;;;;;;;82.93;17.83;;;4.80;99.90;;;;;;4993328;28;20046;-63
2022/01/12 09:26:43;;;;;;;97.85;17.33;;;4.80;99.90;;;;;;4993457;28;20046;-63
2022/01/12 09:29:09;;;;;;;83.85;15.55;;;4.90;99.90;;;;;;4993092;28;20529;-63
2022/01/12 09:31:35;;;;;;;64.68;14.32;;;5.00;99.90;;;;;;4991457;28;20659;-63
2022/01/12 09:34:02;;;;;;;67.68;14.52;;;5.10;99.90;;;;;;4992627;28;20121;-63
2022/01/12 09:36:27;;;;;;;76.13;14.80;;;5.10;99.90;;;;;;4993268;28;20049;-63
2022/01/12 09:38:54;;;;;;;69.10;14.82;;;5.10;99.90;;;;;;4992962;28;20042;-63
2022/01/12 09:41:20;;;;;;;63.20;14.95;;;5.20;99.90;;;;;;4992839;28;20042;-63
2022/01/12 09:43:49;;;;;;;57.58;14.27;;;5.20;99.90;;;;;;4991356;28;20046;-63
2022/01/12 09:46:15;;;;;;;55.30;13.82;;;5.30;99.90;;;;;;4992664;28;20038;-63
2022/01/12 09:48:41;;;;;;;51.60;12.85;;;5.30;99.90;;;;;;4993011;28;21049;-63
2022/01/12 09:51:09;;;;;;;51.25;12.30;;;5.40;99.90;;;;;;4992916;28;20617;-63
2022/01/12 09:53:37;;;;;;;62.35;14.35;;;5.40;99.90;;;;;;4992464;28;20104;-63
2022/01/12 09:56:11;;;;;;;40.85;11.57;;;5.40;99.90;;;;;;4992555;28;20042;-62
2022/01/12 09:58:36;;;;;;;54.65;13.00;;;5.40;99.90;;;;;;4992804;28;20097;-63
2022/01/12 10:01:03;;;;;;;49.10;12.95;;;5.50;99.90;;;;;;4992302;28;20042;-63
2022/01/12 10:03:29;;;;;;;48.30;13.35;;;5.50;99.90;;;;;;4992365;28;20044;-63
2022/01/12 10:05:54;;;;;;;43.17;11.13;;;5.60;99.90;;;;;;4992545;28;20121;-63
2022/01/12 10:08:21;;;;;;;36.05;11.23;;;5.60;99.90;;;;;;4992650;28;20039;-63
2022/01/12 10:11:05;;;;;;;41.58;11.63;;;5.70;99.90;;;;;;4990942;28;20103;-63
2022/01/12 10:13:31;;;;;;;39.60;10.77;;;5.70;99.90;;;;;;4990575;28;20039;-63
2022/01/12 10:15:57;;;;;;;42.42;12.05;;;5.70;99.90;;;;;;4992495;28;20038;-62
2022/01/12 10:18:23;;;;;;;45.47;10.95;;;5.90;99.90;;;;;;4992432;28;20114;-63
2022/01/12 10:20:49;;;;;;;42.42;11.18;;;5.90;99.90;;;;;;4992132;28;20042;-63
2022/01/12 10:23:16;;;;;;;43.17;10.48;;;6.00;99.90;;;;;;4992054;28;20042;-63
2022/01/12 10:25:47;;;;;;;30.88;8.63;;;6.00;99.90;;;;;;4991993;28;20096;-63
2022/01/12 10:28:18;;;;;;;31.80;8.90;;;6.10;99.90;;;;;;4992278;28;20043;-63
2022/01/12 10:31:01;;;;;;;41.85;8.45;;;6.10;99.90;;;;;;4992154;28;20045;-63
2022/01/12 10:33:29;;;;;;;34.17;8.48;;;6.10;99.90;;;;;;4992178;28;20065;-63
2022/01/12 10:35:59;;;;;;;29.63;8.45;;;6.20;99.90;;;;;;4991904;28;20073;-63
2022/01/12 10:38:26;;;;;;;31.98;7.97;;;6.20;99.90;;;;;;4991974;28;20035;-63
2022/01/12 10:41:09;;;;;;;29.60;7.53;;;6.30;99.90;;;;;;4990637;28;20057;-63
2022/01/12 10:43:41;;;;;;;33.92;7.85;;;6.30;99.90;;;;;;4991797;28;20770;-63
2022/01/12 10:46:09;;;;;;;27.48;6.68;;;6.30;99.90;;;;;;4992090;28;20050;-63
2022/01/12 10:48:54;;;;;;;31.25;6.93;;;6.40;99.90;;;;;;4991873;28;20542;-63
2022/01/12 10:51:20;;;;;;;25.10;7.32;;;6.40;99.90;;;;;;4991807;28;20038;-63
2022/01/12 10:53:47;;;;;;;27.67;7.55;;;6.50;99.90;;;;;;4991646;28;20042;-62
2022/01/12 10:56:14;;;;;;;25.58;5.90;;;6.50;99.90;;;;;;4991751;28;20498;-63
2022/01/12 10:58:42;;;;;;;26.00;6.93;;;6.50;99.90;;;;;;4991663;28;20093;-63
2022/01/12 11:01:09;;;;;;;25.63;6.88;;;6.60;99.90;;;;;;4991343;28;20038;-63
2022/01/12 11:03:35;;;;;;;32.28;7.18;;;6.60;99.90;;;;;;4991124;28;20445;-63
2022/01/12 11:06:02;;;;;;;20.67;6.75;;;6.60;99.90;;;;;;4990381;28;20435;-63
2022/01/12 11:08:29;;;;;;;29.70;7.05;;;6.60;99.90;;;;;;4991570;28;20056;-63
2022/01/12 11:10:57;;;;;;;26.15;5.97;;;6.60;99.90;;;;;;4991117;28;20090;-63
2022/01/12 11:13:23;;;;;;;21.95;7.07;;;6.50;99.90;;;;;;4991161;28;20035;-63
2022/01/12 11:15:50;;;;;;;36.15;6.55;;;6.50;99.90;;;;;;4991139;28;20125;-63
2022/01/12 11:18:19;;;;;;;20.40;5.65;;;6.50;99.90;;;;;;4989814;28;20045;-63
2022/01/12 11:20:47;;;;;;;29.70;8.23;;;6.50;99.90;;;;;;4990000;28;20093;-63
2022/01/12 11:23:15;;;;;;;25.40;7.43;;;6.40;99.90;;;;;;4990931;28;20035;-63
2022/01/12 11:25:50;;;;;;;25.30;6.72;;;6.50;99.90;;;;;;4989695;28;20748;-63
2022/01/12 11:28:25;;;;;;;29.27;6.43;;;6.40;99.90;;;;;;4991166;28;20521;-63
2022/01/12 11:30:51;;;;;;;31.80;7.18;;;6.50;99.90;;;;;;4991156;28;20065;-63
2022/01/12 11:33:19;;;;;;;27.80;6.80;;;6.50;99.90;;;;;;4990757;28;20431;-63
2022/01/12 11:35:51;;;;;;;29.65;7.60;;;6.50;99.90;;;;;;4990904;28;20046;-63
2022/01/12 11:38:28;;;;;;;35.45;8.55;;;6.60;99.90;;;;;;4990430;28;20070;-63
2022/01/12 11:41:09;;;;;;;29.63;8.10;;;6.60;99.90;;;;;;4990551;28;20038;-63
2022/01/12 11:43:41;;;;;;;;;;;6.60;99.90;;;;;;4991263;28;20041;-63
2022/01/12 11:46:18;;;;;;;30.88;8.07;;;6.70;99.90;;;;;;4991048;28;19964;-63
2022/01/12 11:48:52;;;;;;;27.27;8.65;;;6.70;99.90;;;;;;4990818;28;20372;-63
2022/01/12 11:51:20;;;;;;;26.30;7.68;;;6.70;99.90;;;;;;4990342;28;20038;-63
2022/01/12 11:53:52;;;;;;;31.50;8.55;;;6.80;99.90;;;;;;4990257;28;20046;-63
2022/01/12 11:56:21;;;;;;;30.42;7.20;;;6.80;99.90;;;;;;4990127;28;20042;-63
2022/01/12 11:58:50;;;;;;;30.85;8.38;;;6.80;99.90;;;;;;4990166;28;20541;-63
2022/01/12 12:01:16;;;;;;;28.23;7.88;;;6.80;99.90;;;;;;4988868;28;20062;-63
2022/01/12 12:03:41;;;;;;;29.63;8.05;;;6.90;99.90;;;;;;4989770;28;20038;-63
2022/01/12 12:06:19;;;;;;;27.92;8.23;;;7.00;99.90;;;;;;4990455;28;20046;-63
2022/01/12 12:09:05;;;;;;;28.67;8.23;;;7.10;99.90;;;;;;4990701;28;20034;-63
2022/01/12 12:11:32;;;;;;;30.48;8.05;;;7.10;99.90;;;;;;4990232;28;20034;-63
2022/01/12 12:14:00;;;;;;;26.50;8.30;;;7.10;99.90;;;;;;4989841;28;20462;-63
2022/01/12 12:16:27;;;;;;;29.55;9.13;;;7.00;99.90;;;;;;4990109;28;20070;-63
2022/01/12 12:18:54;;;;;;;30.77;8.50;;;7.00;99.90;;;;;;4990328;28;20530;-63
2022/01/12 12:21:20;;;;;;;40.33;10.80;;;6.90;99.90;;;;;;4988229;28;20474;-63
2022/01/12 12:23:47;;;;;;;30.75;9.40;;;6.90;99.90;;;;;;4988423;28;20069;-63
2022/01/12 12:26:18;;;;;;;26.92;9.13;;;6.80;99.90;;;;;;4989007;28;20039;-63
2022/01/12 12:28:52;;;;;;;30.98;8.45;;;6.70;99.90;;;;;;4989227;28;20035;-63
2022/01/12 12:31:23;;;;;;;24.73;9.55;;;6.60;99.90;;;;;;4989262;28;20070;-63
2022/01/12 12:34:02;;;;;;;30.57;9.03;;;6.60;99.90;;;;;;4989078;28;20042;-63
2022/01/12 12:36:28;;;;;;;33.28;10.13;;;6.70;99.90;;;;;;4989402;28;20085;-63
2022/01/12 12:39:02;;;;;;;34.70;11.32;;;6.70;99.90;;;;;;4990012;28;20030;-63
2022/01/12 12:41:39;;;;;;;27.13;9.70;;;6.70;99.90;;;;;;4989812;28;20076;-63
2022/01/12 12:44:06;;;;;;;23.60;8.68;;;6.70;99.90;;;;;;4989707;28;20038;-63
2022/01/12 12:46:32;;;;;;;24.23;9.10;;;6.70;99.90;;;;;;4988525;28;20083;-63
2022/01/12 12:48:57;;;;;;;32.00;9.38;;;6.70;99.90;;;;;;4991533;28;20045;-63
2022/01/12 12:51:23;;;;;;;31.73;9.35;;;6.80;99.90;;;;;;4993985;28;20050;-63
2022/01/12 12:53:54;;;;;;;30.35;9.02;;;6.80;99.90;;;;;;4993399;28;20049;-63
2022/01/12 12:56:23;;;;;;;30.80;8.25;;;6.90;99.90;;;;;;4994038;28;20038;-63
2022/01/12 12:58:50;;;;;;;26.60;8.25;;;6.90;99.90;;;;;;4993966;28;20120;-63
2022/01/12 13:01:18;;;;;;;27.92;7.93;;;7.00;99.90;;;;;;4993794;28;20446;-63
2022/01/12 13:03:52;;;;;;;32.15;8.48;;;7.10;99.90;;;;;;4993603;28;20106;-63
2022/01/12 13:06:30;;;;;;;29.40;9.20;;;7.10;99.90;;;;;;4993453;28;20149;-63
2022/01/12 13:09:08;;;;;;;29.83;8.55;;;7.10;99.90;;;;;;4993708;28;20118;-63
2022/01/12 13:11:39;;;;;;;27.40;8.18;;;7.10;99.90;;;;;;4993445;28;20129;-63
2022/01/12 13:14:08;;;;;;;31.70;8.68;;;7.10;99.90;;;;;;4993421;28;20422;-63
2022/01/12 13:16:35;;;;;;;29.13;9.27;;;7.00;99.90;;;;;;4993567;28;20042;-63
2022/01/12 13:19:19;;;;;;;38.38;10.00;;;7.00;99.90;;;;;;4993591;28;20089;-64
2022/01/12 13:21:45;;;;;;;31.83;9.80;;;7.00;99.90;;;;;;4993424;28;20038;-64
2022/01/12 13:24:11;;;;;;;29.25;9.85;;;7.00;99.90;;;;;;4993399;28;20553;-63
2022/01/12 13:26:36;;;;;;;34.72;10.65;;;7.10;99.90;;;;;;4993325;28;20056;-64
2022/01/12 13:29:11;;;;;;;35.22;9.63;;;7.00;99.90;;;;;;4993619;28;20042;-65
2022/01/12 13:31:39;;;;;;;30.15;9.48;;;7.00;99.90;;;;;;4993488;28;20038;-64
2022/01/12 13:34:05;;;;;;;28.38;9.25;;;7.10;99.90;;;;;;4993156;28;20097;-64
2022/01/12 13:36:33;;;;;;;32.42;9.68;;;7.10;99.90;;;;;;4993425;28;20088;-64
2022/01/12 13:39:06;;;;;;;30.92;10.10;;;7.20;99.90;;;;;;4993155;28;20053;-65
2022/01/12 13:41:35;;;;;;;31.40;9.38;;;7.10;99.90;;;;;;4993120;28;20518;-64
2022/01/12 13:44:07;;;;;;;35.10;9.00;;;7.10;99.90;;;;;;4993024;28;20046;-64
2022/01/12 13:46:37;;;;;;;28.45;8.55;;;7.10;99.90;;;;;;4993391;28;20041;-64
2022/01/12 13:51:40;;;;;;;25.10;7.70;;;6.80;99.90;;;;;;4992758;28;20078;-64
2022/01/12 13:54:13;;;;;;;22.17;8.52;;;6.80;99.90;;;;;;4992349;28;20526;-64
2022/01/12 13:56:45;;;;;;;25.25;7.72;;;6.80;99.90;;;;;;4991931;28;20035;-64
2022/01/12 13:59:14;;;;;;;26.27;7.55;;;6.80;99.90;;;;;;4999931;28;20065;-64
2022/01/12 14:01:41;;;;;;;25.27;8.68;;;6.70;99.90;;;;;;5010454;28;20541;-64
2022/01/12 14:04:21;;;;;;;24.98;8.70;;;6.60;99.90;;;;;;5011874;28;20068;-65
2022/01/12 14:06:52;;;;;;;20.40;7.80;;;6.60;99.90;;;;;;5011835;28;20038;-65